Time;durP1;ratioP1;P1;durP2;ratioP2;P2;SDS_P1;SDS_P2;PMS_P1;PMS_P2;Temp;Humidity;BMP_temperature;BMP_pressure;BME280_temperature;BME280_humidity;BME280_pressure;Samples;Min_cycle;Max_cycle;Signal;HPM_P1;HPM_P2
2021/07/17 00:00:58;;;;;;;22.48;6.43;;;;;;;21.51;58.58;102448.38;4893642;28;123552;-77
2021/07/17 00:03:25;;;;;;;14.45;5.97;;;;;;;21.50;58.48;102443.94;4893426;28;123391;-76
2021/07/17 00:05:53;;;;;;;17.95;5.90;;;;;;;21.49;58.63;102441.34;4894965;28;114902;-76
2021/07/17 00:08:20;;;;;;;13.15;5.53;;;;;;;21.47;58.63;102446.84;4893438;28;112486;-76
2021/07/17 00:10:49;;;;;;;14.52;5.78;;;;;;;21.44;58.65;102441.66;4894302;28;124313;-77
2021/07/17 00:13:17;;;;;;;14.40;6.47;;;;;;;21.42;58.72;102443.56;4891522;28;124209;-77
2021/07/17 00:15:47;;;;;;;19.50;6.35;;;;;;;21.42;58.74;102443.56;4878390;28;113929;-76
2021/07/17 00:18:17;;;;;;;20.48;6.70;;;;;;;21.41;58.82;102440.97;4893801;28;113982;-76
2021/07/17 00:20:46;;;;;;;17.27;6.28;;;;;;;21.41;58.76;102447.22;4893549;28;124532;-77
2021/07/17 00:23:13;;;;;;;15.50;6.15;;;;;;;21.42;58.81;102448.94;4892980;28;124460;-76
2021/07/17 00:25:42;;;;;;;13.23;5.72;;;;;;;21.42;58.60;102459.72;4894489;28;114251;-77
2021/07/17 00:28:10;;;;;;;17.48;6.30;;;;;;;21.43;58.76;102456.06;4872557;28;113116;-77
2021/07/17 00:30:37;;;;;;;16.27;6.07;;;;;;;21.42;58.80;102438.16;4892789;28;124660;-76
2021/07/17 00:33:04;;;;;;;17.95;6.32;;;;;;;21.42;58.87;102448.94;4893746;28;124141;-77
2021/07/17 00:35:31;;;;;;;18.83;6.38;;;;;;;21.42;58.83;102454.34;4896125;28;114061;-77
2021/07/17 00:37:59;;;;;;;18.45;6.20;;;;;;;21.40;58.93;102445.50;4894773;28;113490;-77
2021/07/17 00:40:26;;;;;;;15.85;6.32;;;;;;;21.39;59.00;102449.13;4895948;28;124618;-77
2021/07/17 00:42:53;;;;;;;17.55;5.90;;;;;;;21.40;59.05;102445.50;4894630;28;122828;-77
2021/07/17 00:45:21;;;;;;;17.67;6.43;;;;;;;21.39;58.85;102444.59;4894919;28;115095;-76
2021/07/17 00:47:50;;;;;;;13.30;5.90;;;;;;;21.37;58.87;102446.53;4895720;28;116965;-77
2021/07/17 00:50:19;;;;;;;13.48;6.38;;;;;;;21.36;59.12;102443.94;4896153;28;124131;-77
2021/07/17 00:52:47;;;;;;;14.13;5.57;;;;;;;21.35;59.39;102448.47;4893577;28;123795;-77
2021/07/17 00:55:14;;;;;;;11.63;5.90;;;;;;;21.37;59.17;102440.28;4892604;28;114279;-77
2021/07/17 00:57:45;;;;;;;18.75;6.22;;;;;;;21.38;59.08;102442.91;4892903;28;113191;-77
2021/07/17 01:00:15;;;;;;;11.02;5.80;;;;;;;21.37;58.89;102445.69;4892573;28;124682;-77
2021/07/17 01:02:47;;;;;;;19.80;6.35;;;;;;;21.35;59.19;102447.63;4892860;28;123139;-77
2021/07/17 01:05:16;;;;;;;12.52;6.03;;;;;;;21.35;59.16;102439.53;4892134;28;113868;-77
2021/07/17 01:07:48;;;;;;;19.08;6.65;;;;;;;21.34;59.01;102435.09;4878405;28;113043;-77
2021/07/17 01:10:17;;;;;;;14.95;6.05;;;;;;;21.35;59.22;102442.22;4889162;28;125044;-77
2021/07/17 01:12:46;;;;;;;17.73;5.65;;;;;;;21.34;59.24;102445.88;4892464;28;124343;-76
2021/07/17 01:15:14;;;;;;;15.55;6.00;;;;;;;21.32;59.22;102442.41;4892188;28;114222;-76
2021/07/17 01:17:41;;;;;;;14.10;6.22;;;;;;;21.30;59.34;102438.97;4894947;28;113076;-77
2021/07/17 01:20:11;;;;;;;17.13;6.47;;;;;;;21.30;59.32;102433.56;4895174;28;124081;-77
2021/07/17 01:22:40;;;;;;;16.30;6.25;;;;;;;21.29;59.23;102442.63;4894625;28;124380;-77
2021/07/17 01:25:11;;;;;;;16.30;6.50;;;;;;;21.29;59.32;102448.03;4895650;28;114498;-77
2021/07/17 01:27:39;;;;;;;17.85;6.60;;;;;;;21.29;59.38;102440.78;4895828;28;113738;-77
2021/07/17 01:30:12;;;;;;;15.63;6.60;;;;;;;21.30;59.40;102444.34;4893838;28;124195;-77
2021/07/17 01:32:39;;;;;;;14.15;5.72;;;;;;;21.33;59.40;102449.56;4889027;28;124622;-77
2021/07/17 01:35:07;;;;;;;14.57;6.47;;;;;;;21.32;59.35;102442.41;4895449;28;115435;-77
2021/07/17 01:37:35;;;;;;;16.38;6.30;;;;;;;21.32;59.34;102448.69;4891137;28;114789;-76
2021/07/17 01:40:05;;;;;;;17.33;6.20;;;;;;;21.32;59.21;102453.19;4894300;28;124697;-77
2021/07/17 01:42:36;;;;;;;15.57;6.22;;;;;;;21.31;59.34;102446.09;4890760;28;124052;-77
2021/07/17 01:45:07;;;;;;;17.50;6.22;;;;;;;21.31;59.31;102446.09;4892246;28;112575;-76
2021/07/17 01:47:36;;;;;;;16.40;6.60;;;;;;;21.31;59.25;102440.69;4892468;28;114555;-76
2021/07/17 01:50:05;;;;;;;18.60;6.90;;;;;;;21.30;59.38;102442.50;4895487;28;124144;-77
2021/07/17 01:52:33;;;;;;;16.45;6.25;;;;;;;21.30;59.42;102444.34;4895283;28;124121;-77
2021/07/17 01:55:00;;;;;;;16.52;6.75;;;;;;;21.29;59.40;102445.34;4896789;28;114314;-77
2021/07/17 01:57:27;;;;;;;12.13;6.32;;;;;;;21.28;59.38;102443.59;4877428;28;113069;-76
2021/07/17 01:59:54;;;;;;;15.35;6.32;;;;;;;21.28;59.54;102446.28;4894862;28;124173;-77
2021/07/17 02:02:21;;;;;;;16.30;6.40;;;;;;;21.26;59.56;102432.03;4876484;28;122722;-77
2021/07/17 02:04:49;;;;;;;15.57;6.45;;;;;;;21.26;59.46;102437.44;4895352;28;114781;-76
2021/07/17 02:07:16;;;;;;;16.17;6.18;;;;;;;21.24;59.66;102433.97;4895030;28;113230;-77
2021/07/17 02:09:43;;;;;;;14.38;6.05;;;;;;;21.23;59.78;102432.22;4895417;28;123328;-77
2021/07/17 02:12:10;;;;;;;16.20;6.40;;;;;;;21.22;59.60;102438.59;4889269;28;123321;-77
2021/07/17 02:14:39;;;;;;;17.58;6.47;;;;;;;21.20;59.73;102438.69;4885743;28;114050;-76
2021/07/17 02:17:07;;;;;;;14.57;5.95;;;;;;;21.20;59.68;102436.84;4892338;28;113105;-76
2021/07/17 02:19:34;;;;;;;16.00;6.95;;;;;;;21.22;59.79;102435.91;4894240;28;123791;-76
2021/07/17 02:22:03;;;;;;;17.33;6.55;;;;;;;21.20;59.91;102434.16;4893072;28;123407;-76
2021/07/17 02:24:30;;;;;;;16.50;6.28;;;;;;;21.19;59.76;102437.84;4892970;28;114864;-76
2021/07/17 02:26:58;;;;;;;16.90;6.53;;;;;;;21.19;59.72;102443.22;4894910;28;113716;-77
2021/07/17 02:29:25;;;;;;;18.15;6.53;;;;;;;21.17;59.82;102445.16;4894913;28;124568;-76
2021/07/17 02:31:52;;;;;;;16.92;6.35;;;;;;;21.16;59.76;102438.03;4893722;28;124541;-76
2021/07/17 02:34:19;;;;;;;18.30;6.55;;;;;;;21.14;59.73;102439.97;4896999;28;113664;-76
2021/07/17 02:36:46;;;;;;;18.17;6.53;;;;;;;21.12;59.77;102441.88;4894178;28;113855;-76
2021/07/17 02:39:14;;;;;;;16.10;6.50;;;;;;;21.11;59.85;102440.13;4897524;28;123123;-76
2021/07/17 02:41:41;;;;;;;17.35;6.40;;;;;;;21.12;60.05;102439.19;4894312;28;124015;-76
2021/07/17 02:44:08;;;;;;;13.50;6.57;;;;;;;21.12;59.80;102441.88;4904670;28;113359;-76
2021/07/17 02:46:36;;;;;;;17.27;6.50;;;;;;;21.11;59.80;102445.53;4917664;28;113760;-76
2021/07/17 02:49:03;;;;;;;14.32;6.20;;;;;;;21.09;59.70;102442.06;4916673;28;123454;-76
2021/07/17 02:51:31;;;;;;;16.15;6.40;;;;;;;21.08;59.91;102443.06;4920755;28;124747;-76
2021/07/17 02:53:58;;;;;;;11.68;5.85;;;;;;;21.06;59.95;102447.69;4920635;28;113817;-75
2021/07/17 02:56:25;;;;;;;18.25;6.95;;;;;;;21.07;59.95;102452.09;4919454;28;114670;-76
2021/07/17 02:58:52;;;;;;;16.08;6.60;;;;;;;21.07;59.85;102459.31;4903477;28;123124;-76
2021/07/17 03:01:19;;;;;;;14.90;6.57;;;;;;;21.04;59.93;102454.09;4918317;28;124970;-75
2021/07/17 03:03:46;;;;;;;15.45;6.38;;;;;;;21.02;59.68;102462.31;4917316;28;115045;-75
2021/07/17 03:06:14;;;;;;;13.60;6.20;;;;;;;21.01;59.94;102455.19;4919307;28;114661;-75
2021/07/17 03:08:41;;;;;;;15.23;6.47;;;;;;;20.99;60.05;102459.81;4904315;28;122551;-76
2021/07/17 03:11:08;;;;;;;19.05;6.60;;;;;;;20.99;59.88;102457.09;4919658;28;124647;-76
2021/07/17 03:13:35;;;;;;;15.25;6.18;;;;;;;20.96;59.80;102452.78;4919809;28;113685;-75
2021/07/17 03:16:02;;;;;;;13.68;6.00;;;;;;;20.96;59.92;102452.78;4919732;28;116559;-76
2021/07/17 03:18:30;;;;;;;14.63;5.82;;;;;;;20.97;59.87;102450.97;4918514;28;124956;-75
2021/07/17 03:20:57;;;;;;;19.08;6.40;;;;;;;20.97;59.90;102459.03;4916645;28;123729;-76
2021/07/17 03:23:24;;;;;;;20.05;6.07;;;;;;;20.97;59.86;102450.97;4916741;28;113884;-76
2021/07/17 03:25:51;;;;;;;14.23;6.07;;;;;;;20.96;59.68;102457.28;4916562;28;115824;-75
2021/07/17 03:28:18;;;;;;;14.70;6.20;;;;;;;20.95;59.70;102466.34;4901892;28;123969;-76
2021/07/17 03:30:46;;;;;;;14.00;6.25;;;;;;;20.95;59.94;102460.97;4894201;28;122695;-76
2021/07/17 03:33:13;;;;;;;15.18;6.32;;;;;;;20.94;59.75;102464.59;4894666;28;115068;-76
2021/07/17 03:35:40;;;;;;;14.65;6.28;;;;;;;20.93;59.52;102465.59;4893626;28;112672;-77
2021/07/17 03:38:07;;;;;;;17.20;6.60;;;;;;;20.92;59.71;102461.16;4893986;28;124605;-76
2021/07/17 03:40:34;;;;;;;13.43;6.28;;;;;;;20.92;59.80;102466.53;4894194;28;124175;-76
2021/07/17 03:43:01;;;;;;;17.05;6.60;;;;;;;20.89;59.66;102466.72;4893125;28;114106;-76
2021/07/17 03:45:29;;;;;;;15.63;5.93;;;;;;;20.88;59.82;102465.00;4893447;28;113998;-76
2021/07/17 03:47:56;;;;;;;15.80;6.57;;;;;;;20.87;59.71;102465.94;4896084;28;124080;-76
2021/07/17 03:50:23;;;;;;;12.88;5.93;;;;;;;20.84;59.73;102458.94;4887575;28;122817;-77
2021/07/17 03:52:50;;;;;;;15.75;6.15;;;;;;;20.85;59.68;102454.41;4893868;28;113548;-76
2021/07/17 03:55:17;;;;;;;14.75;5.95;;;;;;;20.83;59.74;102464.41;4894290;28;113199;-76
2021/07/17 03:57:44;;;;;;;15.75;6.10;;;;;;;20.83;59.70;102457.19;4893275;28;123009;-76
2021/07/17 04:00:12;;;;;;;16.42;6.63;;;;;;;20.83;59.66;102456.34;4893381;28;122255;-76
2021/07/17 04:02:43;;;;;;;15.48;6.20;;;;;;;20.80;59.90;102458.25;4893827;28;114777;-76
2021/07/17 04:05:13;;;;;;;14.73;6.72;;;;;;;20.78;59.64;102453.94;4889827;28;115310;-76
2021/07/17 04:07:41;;;;;;;14.25;6.20;;;;;;;20.77;59.87;102458.44;4892593;28;124176;-76
2021/07/17 04:10:10;;;;;;;14.82;6.03;;;;;;;20.75;59.89;102460.38;4896856;28;123405;-76
2021/07/17 04:12:37;;;;;;;15.48;6.50;;;;;;;20.76;59.80;102461.25;4893754;28;114117;-76
2021/07/17 04:15:06;;;;;;;17.38;6.07;;;;;;;20.74;59.75;102455.97;4894041;28;113910;-76
2021/07/17 04:17:33;;;;;;;15.23;6.13;;;;;;;20.72;59.81;102455.19;4894955;28;123460;-76
2021/07/17 04:20:00;;;;;;;14.95;5.75;;;;;;;20.71;59.76;102457.97;4893529;28;124204;-76
2021/07/17 04:22:27;;;;;;;15.18;6.25;;;;;;;20.70;59.92;102459.81;4876276;28;113426;-76
2021/07/17 04:24:54;;;;;;;16.40;6.60;;;;;;;20.69;59.82;102457.22;4893915;28;114220;-76
2021/07/17 04:27:21;;;;;;;17.75;6.82;;;;;;;20.67;59.94;102460.00;4889427;28;123134;-76
2021/07/17 04:29:49;;;;;;;15.98;6.53;;;;;;;20.66;60.15;102455.56;4893675;28;123128;-76
2021/07/17 04:32:16;;;;;;;20.83;6.55;;;;;;;20.65;60.01;102464.59;4892065;28;115781;-78
2021/07/17 04:34:43;;;;;;;13.85;6.63;;;;;;;20.64;60.16;102452.09;4902056;28;113802;-78
2021/07/17 04:37:15;;;;;;;14.80;7.00;;;;;;;20.66;60.34;102460.94;4895969;28;125100;-78
2021/07/17 04:39:43;;;;;;;15.23;6.90;;;;;;;20.64;60.25;102452.09;4891307;28;124244;-78
2021/07/17 04:42:10;;;;;;;13.27;6.28;;;;;;;20.63;60.30;102455.75;4895228;28;115146;-78
2021/07/17 04:44:37;;;;;;;12.98;6.72;;;;;;;20.63;60.23;102455.75;4896091;28;114220;-78
2021/07/17 04:47:04;;;;;;;15.68;6.68;;;;;;;20.62;60.24;102459.41;4894772;28;124726;-78
2021/07/17 04:49:32;;;;;;;14.02;5.93;;;;;;;20.63;60.29;102461.16;4894444;28;126587;-78
2021/07/17 04:51:59;;;;;;;14.95;6.07;;;;;;;20.61;60.31;102461.25;4887579;28;114166;-78
2021/07/17 04:54:27;;;;;;;15.43;6.63;;;;;;;20.58;60.41;102452.44;4898361;28;115388;-79
2021/07/17 04:56:54;;;;;;;14.80;6.20;;;;;;;20.58;60.33;102463.22;4893803;28;124226;-79
2021/07/17 04:59:21;;;;;;;19.55;7.13;;;;;;;20.56;60.34;102466.00;4893637;28;123871;-78
2021/07/17 05:01:48;;;;;;;13.77;6.40;;;;;;;20.55;60.57;102466.09;4892237;28;113560;-78
2021/07/17 05:04:16;;;;;;;23.23;6.43;;;;;;;20.58;60.66;102468.59;4893508;28;114108;-78
2021/07/17 05:06:43;;;;;;;18.92;6.70;;;;;;;20.61;60.72;102469.31;4893970;28;124350;-78
2021/07/17 05:09:10;;;;;;;18.60;6.97;;;;;;;20.64;60.67;102472.78;4895166;28;123081;-78
2021/07/17 05:11:37;;;;;;;16.25;6.95;;;;;;;20.67;60.65;102469.91;4898164;28;114469;-79
2021/07/17 05:14:04;;;;;;;15.90;6.93;;;;;;;20.69;60.77;102470.69;4876929;28;113069;-78
2021/07/17 05:16:32;;;;;;;19.40;6.38;;;;;;;20.73;60.73;102472.22;4892384;28;124418;-78
2021/07/17 05:18:59;;;;;;;15.23;6.32;;;;;;;20.73;60.68;102469.50;4896221;28;124346;-78
2021/07/17 05:21:26;;;;;;;17.88;7.38;;;;;;;20.75;60.75;102479.22;4892499;28;114461;-79
2021/07/17 05:23:53;;;;;;;16.17;6.80;;;;;;;20.75;60.82;102476.53;4893209;28;114655;-79
2021/07/17 05:26:20;;;;;;;13.95;6.10;;;;;;;20.76;60.90;102472.88;4893464;28;124274;-79
2021/07/17 05:28:47;;;;;;;17.40;6.50;;;;;;;20.80;60.82;102469.03;4895014;28;123836;-79
2021/07/17 05:31:14;;;;;;;17.00;6.78;;;;;;;20.82;61.02;102477.03;4913941;28;114153;-79
2021/07/17 05:33:41;;;;;;;18.17;6.22;;;;;;;20.85;60.84;102476.84;4915334;28;114374;-79
2021/07/17 05:36:09;;;;;;;15.95;6.35;;;;;;;20.87;60.86;102474.03;4910947;28;123449;-77
2021/07/17 05:38:36;;;;;;;19.35;7.30;;;;;;;20.88;60.94;102470.38;4911843;28;123432;-75
2021/07/17 05:41:03;;;;;;;14.50;6.40;;;;;;;20.92;61.07;102477.31;4899021;28;114992;-78
2021/07/17 05:43:30;;;;;;;14.70;5.90;;;;;;;20.93;61.03;102474.53;4897110;28;115021;-78
2021/07/17 05:45:57;;;;;;;17.63;6.45;;;;;;;20.97;60.96;102469.81;4915642;28;124494;-79
2021/07/17 05:48:24;;;;;;;18.70;6.45;;;;;;;20.99;60.89;102467.88;4917194;28;123322;-78
2021/07/17 05:50:51;;;;;;;17.50;6.65;;;;;;;21.01;61.26;102476.72;4916583;28;113035;-78
2021/07/17 05:53:18;;;;;;;20.80;6.68;;;;;;;21.03;61.18;102477.50;4917609;28;113654;-78
2021/07/17 05:55:45;;;;;;;17.90;7.07;;;;;;;21.07;61.13;102476.34;4915975;28;123110;-77
2021/07/17 05:58:12;;;;;;;17.00;6.47;;;;;;;21.09;61.06;102479.78;4917612;28;124501;-79
2021/07/17 06:00:42;;;;;;;17.13;6.05;;;;;;;21.12;61.13;102479.59;4918586;28;114096;-78
2021/07/17 06:03:09;;;;;;;15.48;6.15;;;;;;;21.14;60.91;102482.22;4918391;28;114842;-80
2021/07/17 06:05:37;;;;;;;17.27;6.10;;;;;;;21.17;61.05;102482.88;4917855;28;125121;-80
2021/07/17 06:08:04;;;;;;;15.75;6.10;;;;;;;21.19;60.86;102486.34;4910643;28;125125;-79
2021/07/17 06:10:31;;;;;;;16.50;6.13;;;;;;;21.28;61.07;102484.00;4899515;28;114145;-77
2021/07/17 06:12:59;;;;;;;18.98;6.10;;;;;;;21.36;61.07;102484.38;4894971;28;112014;-79
2021/07/17 06:15:26;;;;;;;17.95;7.05;;;;;;;21.47;61.11;102498.06;4889748;28;124106;-79
2021/07/17 06:17:53;;;;;;;13.77;5.60;;;;;;;21.57;61.00;102495.66;4896297;28;126919;-76
2021/07/17 06:20:21;;;;;;;14.75;5.57;;;;;;;21.62;60.93;102498.03;4900713;28;114843;-79
2021/07/17 06:22:49;;;;;;;13.68;5.90;;;;;;;21.69;60.90;102504.75;4899091;28;113882;-79
2021/07/17 06:25:16;;;;;;;13.00;5.78;;;;;;;21.74;60.66;102502.63;4895904;28;124094;-78
2021/07/17 06:27:44;;;;;;;15.60;6.03;;;;;;;21.82;60.70;102505.66;4893952;28;123754;-78
2021/07/17 06:30:11;;;;;;;16.58;5.40;;;;;;;21.87;60.34;102503.53;4893175;28;115430;-80
2021/07/17 06:32:38;;;;;;;15.05;5.90;;;;;;;21.90;60.33;102503.31;4893341;28;114601;-80
2021/07/17 06:35:06;;;;;;;14.30;5.47;;;;;;;21.95;60.24;102506.59;4895792;28;124752;-80
2021/07/17 06:37:33;;;;;;;13.68;5.20;;;;;;;21.99;60.21;102506.38;4898136;28;122727;-80
2021/07/17 06:40:00;;;;;;;14.07;5.65;;;;;;;22.06;60.02;102513.09;4897101;28;114182;-81
2021/07/17 06:42:27;;;;;;;14.52;5.22;;;;;;;22.09;60.01;102518.28;4896616;28;114109;-79
2021/07/17 06:44:55;;;;;;;16.60;5.20;;;;;;;22.11;59.79;102522.63;4907168;28;124178;-80
2021/07/17 06:47:22;;;;;;;12.35;5.00;;;;;;;22.12;59.75;102515.38;4895978;28;122871;-80
2021/07/17 06:49:49;;;;;;;14.40;5.22;;;;;;;22.14;59.90;102517.00;4895481;28;112767;-81
2021/07/17 06:52:16;;;;;;;14.82;4.97;;;;;;;22.17;59.87;102515.94;4897281;28;114837;-78
2021/07/17 06:54:43;;;;;;;14.13;4.78;;;;;;;22.24;60.01;102528.03;4891384;28;123965;-81
2021/07/17 06:57:10;;;;;;;12.23;4.90;;;;;;;22.32;60.04;102523.03;4896134;28;123065;-81
2021/07/17 06:59:37;;;;;;;17.48;5.25;;;;;;;22.43;60.12;102526.81;4896112;28;114720;-78
2021/07/17 07:02:04;;;;;;;12.60;4.40;;;;;;;22.51;60.25;102514.53;4897048;28;114150;-80
2021/07/17 07:04:32;;;;;;;15.43;4.80;;;;;;;22.63;59.69;102523.59;4894469;28;125116;-81
2021/07/17 07:07:00;;;;;;;11.48;4.90;;;;;;;22.73;60.05;102530.13;4896856;28;124206;-81
2021/07/17 07:09:27;;;;;;;10.48;4.35;;;;;;;22.83;59.73;102529.44;4893205;28;114163;-81
2021/07/17 07:11:55;;;;;;;14.77;4.97;;;;;;;22.89;59.15;102534.44;4895950;28;112653;-81
2021/07/17 07:14:23;;;;;;;13.77;4.20;;;;;;;22.94;59.07;102537.66;4894818;28;123491;-80
2021/07/17 07:16:50;;;;;;;14.57;4.70;;;;;;;23.00;59.06;102531.84;4877487;28;122739;-80
2021/07/17 07:19:17;;;;;;;9.32;4.35;;;;;;;23.08;58.94;102537.56;4888855;28;114322;-81
2021/07/17 07:21:44;;;;;;;12.55;4.28;;;;;;;23.18;59.00;102539.63;4893693;28;114708;-80
2021/07/17 07:24:11;;;;;;;11.85;4.50;;;;;;;23.29;59.00;102542.44;4876901;28;123627;-80
2021/07/17 07:26:38;;;;;;;7.28;4.00;;;;;;;23.40;58.71;102545.22;4893480;28;122891;-82
2021/07/17 07:29:06;;;;;;;10.02;3.85;;;;;;;23.51;58.47;102548.00;4894904;28;112925;-80
2021/07/17 07:31:33;;;;;;;8.60;3.10;;;;;;;23.65;58.36;102546.97;4909674;28;114815;-79
2021/07/17 07:34:00;;;;;;;8.43;3.20;;;;;;;23.79;58.10;102551.41;4893574;28;124552;-81
2021/07/17 07:36:27;;;;;;;10.88;4.70;;;;;;;23.94;58.05;102543.13;4894554;28;123234;-82
2021/07/17 07:38:54;;;;;;;12.93;3.85;;;;;;;24.11;57.87;102548.16;4894576;28;114261;-81
2021/07/17 07:41:21;;;;;;;7.75;3.50;;;;;;;24.21;57.52;102540.19;4896889;28;113247;-82
2021/07/17 07:43:48;;;;;;;9.23;3.63;;;;;;;24.32;57.08;102542.03;4895390;28;124598;-82
2021/07/17 07:46:16;;;;;;;10.20;3.60;;;;;;;24.43;57.06;102550.22;4896686;28;124068;-80
2021/07/17 07:48:43;;;;;;;8.77;3.45;;;;;;;24.56;56.72;102551.03;4896479;28;114796;-80
2021/07/17 07:51:11;;;;;;;9.45;3.22;;;;;;;24.65;55.87;102550.31;4895715;28;113070;-79
2021/07/17 07:53:38;;;;;;;9.88;3.60;;;;;;;24.73;55.49;102551.56;4896190;28;124287;-80
2021/07/17 07:56:06;;;;;;;8.75;3.38;;;;;;;24.79;55.93;102551.94;4898313;28;123562;-80
2021/07/17 07:58:33;;;;;;;8.25;3.45;;;;;;;24.86;55.54;102547.78;4898481;28;113324;-79
2021/07/17 08:01:01;;;;;;;8.02;3.88;;;;;;;24.91;55.40;102550.13;4896442;28;112959;-81
2021/07/17 08:03:28;;;;;;;6.97;3.67;;;;;;;24.90;55.48;102548.38;4896340;28;123054;-80
2021/07/17 08:05:56;;;;;;;8.75;3.50;;;;;;;24.94;55.64;102543.56;4905754;28;122826;-80
2021/07/17 08:08:23;;;;;;;8.57;3.70;;;;;;;24.95;55.35;102540.75;4898431;28;113414;-80
2021/07/17 08:10:50;;;;;;;9.63;3.72;;;;;;;24.95;55.56;102540.75;4878674;28;114864;-80
2021/07/17 08:13:17;;;;;;;8.32;3.47;;;;;;;24.96;55.22;102539.78;4896079;28;123666;-80
2021/07/17 08:15:45;;;;;;;8.88;4.03;;;;;;;25.01;55.42;102529.41;4898964;28;122565;-80
2021/07/17 08:18:12;;;;;;;10.40;3.95;;;;;;;25.09;55.53;102546.91;4896032;28;114383;-79
2021/07/17 08:20:40;;;;;;;11.27;3.70;;;;;;;25.17;55.58;102537.19;4894638;28;113008;-79
2021/07/17 08:23:08;;;;;;;10.35;3.53;;;;;;;25.29;55.42;102537.22;4914448;28;124154;-80
2021/07/17 08:25:35;;;;;;;8.18;3.30;;;;;;;25.36;55.50;102533.88;4876418;28;123368;-80
2021/07/17 08:28:03;;;;;;;10.90;3.63;;;;;;;25.43;55.06;102539.69;4899910;28;113452;-80
2021/07/17 08:30:32;;;;;;;8.55;3.25;;;;;;;25.51;54.88;102539.91;4896627;28;114630;-80
2021/07/17 08:33:01;;;;;;;7.82;2.95;;;;;;;25.59;55.47;102533.84;4889120;28;123826;-79
2021/07/17 08:35:29;;;;;;;8.70;3.50;;;;;;;25.69;54.91;102547.50;4890144;28;124004;-80
2021/07/17 08:37:56;;;;;;;6.57;3.03;;;;;;;25.76;54.24;102541.44;4910825;28;113964;-80
2021/07/17 08:40:24;;;;;;;8.50;3.30;;;;;;;25.81;54.20;102538.38;4902002;28;113856;-79
2021/07/17 08:42:51;;;;;;;9.98;3.33;;;;;;;25.88;54.02;102538.69;4903635;28;125246;-80
2021/07/17 08:45:21;;;;;;;6.55;2.80;;;;;;;25.93;53.52;102541.94;4893944;28;124490;-77
2021/07/17 08:47:51;;;;;;;5.47;2.10;;;;;;;25.99;52.95;102525.13;4896170;28;113315;-77
2021/07/17 08:50:22;;;;;;;7.15;2.88;;;;;;;26.04;52.70;102536.47;4876137;28;113529;-78
2021/07/17 08:52:55;;;;;;;6.95;2.60;;;;;;;26.08;52.21;102535.22;4892742;28;124161;-78
2021/07/17 08:55:25;;;;;;;8.55;2.60;;;;;;;26.12;52.56;102541.25;4892998;28;123082;-79
2021/07/17 08:57:52;;;;;;;6.32;2.50;;;;;;;26.17;51.97;102534.44;4892095;28;114686;-78
2021/07/17 09:00:27;;;;;;;7.43;2.60;;;;;;;26.21;51.99;102538.59;4892667;28;114774;-78
2021/07/17 09:02:59;;;;;;;;;;;;;;;26.26;53.00;102537.34;4878217;28;123698;-78
2021/07/17 09:05:30;;;;;;;4.10;2.17;;;;;;;26.34;52.29;102534.84;4892469;28;123360;-79
2021/07/17 09:07:58;;;;;;;7.22;2.40;;;;;;;26.38;51.89;102530.88;4893388;28;113086;-79
2021/07/17 09:10:36;;;;;;;;;;;;;;;26.39;52.68;102535.31;4892158;28;114701;-79
2021/07/17 09:13:24;;;;;;;5.38;2.35;;;;;;;26.44;52.00;102541.22;4905682;28;123006;-79
2021/07/17 09:15:51;;;;;;;6.28;2.40;;;;;;;26.47;51.61;102537.38;4906783;28;123993;-78
2021/07/17 09:18:21;;;;;;;6.50;2.67;;;;;;;26.48;51.71;102537.22;4896011;28;114054;-80
2021/07/17 09:20:57;;;;;;;4.10;2.22;;;;;;;26.52;51.39;102533.28;4878263;28;112590;-80
2021/07/17 09:23:26;;;;;;;5.13;2.75;;;;;;;26.56;51.39;102529.28;4929246;23;123934;-68
2021/07/17 09:25:54;;;;;;;6.00;2.28;;;;;;;26.61;50.56;102532.47;4929987;28;122175;-68
2021/07/17 09:28:27;;;;;;;4.35;1.77;;;;;;;26.66;50.86;102523.09;4932786;28;113389;-68
2021/07/17 09:30:58;;;;;;;3.75;2.10;;;;;;;26.72;50.75;102533.41;4930706;28;114635;-68
2021/07/17 09:33:27;;;;;;;3.97;1.80;;;;;;;26.77;50.16;102536.59;4934478;28;124407;-67
2021/07/17 09:35:57;;;;;;;4.53;2.03;;;;;;;26.83;49.49;102525.19;4931411;28;123014;-69
2021/07/17 09:38:26;;;;;;;2.70;1.42;;;;;;;26.89;49.18;102530.06;4938214;28;114549;-68
2021/07/17 09:40:56;;;;;;;3.53;1.85;;;;;;;26.95;49.89;102529.53;4932828;28;113876;-68
2021/07/17 09:43:42;;;;;;;4.82;1.65;;;;;;;26.98;49.73;102529.25;4930652;28;124245;-68
2021/07/17 09:46:23;;;;;;;5.88;1.90;;;;;;;27.02;48.34;102531.72;4952673;28;122704;-69
2021/07/17 09:48:56;;;;;;;3.63;1.63;;;;;;;27.03;47.61;102528.00;4925698;28;115317;-69
2021/07/17 09:51:34;;;;;;;4.85;1.77;;;;;;;27.02;48.47;102523.56;4938828;28;114688;-68
2021/07/17 09:54:06;;;;;;;2.95;1.67;;;;;;;27.09;48.51;102524.75;4935673;28;123097;-70
2021/07/17 09:56:36;;;;;;;5.32;1.77;;;;;;;27.20;48.29;102527.38;4938742;28;123903;-69
2021/07/17 09:59:16;;;;;;;5.55;1.67;;;;;;;27.29;47.47;102526.53;4937820;28;114339;-68
2021/07/17 10:01:43;;;;;;;4.43;1.70;;;;;;;27.34;47.80;102527.00;4939479;28;114524;-68
2021/07/17 10:04:13;;;;;;;3.03;1.60;;;;;;;27.38;47.46;102524.88;4937114;28;124728;-68
2021/07/17 10:06:45;;;;;;;4.20;1.80;;;;;;;27.38;46.24;102525.72;4936353;28;124040;-68
2021/07/17 10:09:12;;;;;;;3.53;1.40;;;;;;;27.38;46.40;102520.28;4933820;28;115433;-68
2021/07/17 10:11:41;;;;;;;5.97;1.58;;;;;;;27.44;46.54;102512.56;4934911;28;114171;-69
2021/07/17 10:14:20;;;;;;;3.63;1.40;;;;;;;27.50;46.49;102517.44;4919739;28;123162;-68
2021/07/17 10:16:49;;;;;;;2.25;1.20;;;;;;;27.55;46.37;102515.16;4935397;28;124287;-68
2021/07/17 10:19:18;;;;;;;3.75;1.48;;;;;;;27.62;46.68;102515.47;4932243;28;114253;-67
2021/07/17 10:21:46;;;;;;;3.00;1.38;;;;;;;27.69;46.02;102517.50;4935617;28;114567;-68
2021/07/17 10:24:15;;;;;;;4.57;1.60;;;;;;;27.75;46.19;102516.94;4934182;28;124385;-68
2021/07/17 10:26:43;;;;;;;4.70;1.40;;;;;;;27.82;45.78;102508.19;4927783;28;123812;-69
2021/07/17 10:29:12;;;;;;;2.40;1.27;;;;;;;27.88;46.11;102510.34;4929699;28;114451;-68
2021/07/17 10:31:40;;;;;;;2.90;1.70;;;;;;;27.93;45.37;102516.25;4936637;28;114361;-68
2021/07/17 10:34:09;;;;;;;3.58;1.42;;;;;;;27.96;46.02;102518.69;4935176;28;124072;-68
2021/07/17 10:36:43;;;;;;;4.78;1.50;;;;;;;28.02;45.68;102523.56;4950832;28;124458;-68
2021/07/17 10:39:11;;;;;;;4.03;1.30;;;;;;;28.08;46.19;102516.69;4936742;28;115496;-68
2021/07/17 10:41:42;;;;;;;3.97;1.15;;;;;;;28.10;44.75;102510.06;4935625;28;114770;-68
2021/07/17 10:44:10;;;;;;;2.17;1.10;;;;;;;28.11;44.92;102511.81;4934886;28;124308;-69
2021/07/17 10:46:42;;;;;;;3.33;1.33;;;;;;;28.17;45.32;102504.91;4937742;28;124244;-69
2021/07/17 10:49:11;;;;;;;2.75;1.17;;;;;;;28.23;44.84;102511.66;4936917;28;114634;-68
2021/07/17 10:51:41;;;;;;;3.72;1.23;;;;;;;28.28;45.07;102506.66;4939563;28;112959;-68
2021/07/17 10:54:10;;;;;;;2.75;1.00;;;;;;;28.35;45.10;102507.78;4932896;28;123936;-68
2021/07/17 10:56:45;;;;;;;2.40;1.10;;;;;;;28.42;44.94;102513.50;4955348;28;123055;-69
2021/07/17 10:59:12;;;;;;;3.70;1.30;;;;;;;28.49;44.78;102510.03;4942225;28;114799;-68
2021/07/17 11:02:02;;;;;;;3.00;1.20;;;;;;;28.51;44.26;102502.56;4934270;28;114087;-69
2021/07/17 11:04:45;;;;;;;3.17;1.23;;;;;;;28.58;44.57;102507.50;4929119;28;124975;-68
2021/07/17 11:07:15;;;;;;;4.15;1.10;;;;;;;28.64;44.84;102506.88;4938599;28;123906;-67
2021/07/17 11:09:56;;;;;;;2.17;1.10;;;;;;;28.70;44.52;102500.84;4937750;28;114142;-68
2021/07/17 11:12:28;;;;;;;3.22;1.08;;;;;;;28.77;44.13;102501.97;4934372;28;112941;-69
2021/07/17 11:15:20;;;;;;;4.40;1.20;;;;;;;28.83;43.33;102512.28;4933670;28;122872;-68
2021/07/17 11:17:54;;;;;;;3.47;1.10;;;;;;;28.85;43.06;102510.25;4936558;28;124116;-68